Chemroad Wing — 3EAB8 — position and weather

sailwx.info

Track history (hours):
 
Tides and Currents Weather Stations Pressure Air Temp Water Temp Dewpoint Dewpoint Depression Visibility Wind Speed Wind Dir Waves Ship Positions

Chemroad Wing

Last reported at 2016-May-31 06:13 UTC. Time now 2016-May-31 20:01 UTC.
Position N 31°07' E 032°18'.

Length 170 m; draft 11.4 m.

Type: Ship (hazmat cat B). MMSI: 357740000.

Date/timePositionNaut miles runAvg speedWind from/ knotsBaromVisibWave heightAir tempDewpointWater temp
2016-May-31 06:13N 31°07' E 032°18'12 7.4
2016-May-31 04:33N 31°19' E 032°22'4 0.4
2016-May-30 16:08N 31°23' E 032°19'31 3.3
2016-May-30 06:33N 31°46' E 031°54'4113.6
2016-May-30 03:33N 32°03' E 031°10'1313.3
2016-May-30 02:34N 32°07' E 030°56'1313.4
2016-May-30 01:33N 32°14' E 030°42'5413.4
2016-May-29 21:33N 32°29' E 029°40'1313.2
2016-May-29 20:33N 32°32' E 029°25'1313.4
2016-May-29 19:33N 32°36' E 029°10'51013.7
2016-May-28 06:12N 34°56' E 019°20'913.9
2016-May-28 05:33N 34°58' E 019°09'1414.2
2016-May-28 04:33N 35°02' E 018°52'1414.0
2016-May-28 03:33N 35°05' E 018°36'1413.9
2016-May-28 02:33N 35°09' E 018°20'1413.5
2016-May-28 01:32N 35°13' E 018°04'1313.3
2016-May-28 00:33N 35°17' E 017°48'1313.2
2016-May-27 23:33N 35°20' E 017°32'1913.3
2016-May-27 22:07N 35°25' E 017°10'713.3
2016-May-27 21:34N 35°27' E 017°01'1413.5
2016-May-27 20:33N 35°31' E 016°45'1313.3
2016-May-27 19:33N 35°35' E 016°29'1313.3
2016-May-27 18:33N 35°38' E 016°14'1313.3
2016-May-27 17:33N 35°42' E 015°58'1413.5
2016-May-27 16:33N 35°46' E 015°42'1313.1
2016-May-27 15:33N 35°50' E 015°27'1313.2
2016-May-27 14:34N 35°55' E 015°12'1313.1
2016-May-27 13:33N 36°00' E 014°57'1313.2
2016-May-27 12:33N 36°05' E 014°42'1313.2
2016-May-27 11:33N 36°10' E 014°27'1313.1
2016-May-27 10:34N 36°15' E 014°12'1313.3
2016-May-27 09:33N 36°21' E 013°57'1313.4
2016-May-27 08:33N 36°26' E 013°41'1313.3
2016-May-27 07:34N 36°32' E 013°27'1413.8
2016-May-27 06:33N 36°37' E 013°10'1413.7
2016-May-27 05:33N 36°42' E 012°55'1413.7
2016-May-27 04:33N 36°47' E 012°39'1413.9
2016-May-27 03:33N 36°53' E 012°23'1414.1
2016-May-27 02:34N 36°59' E 012°07'1414.0
2016-May-27 01:33N 37°05' E 011°51'1313.4
2016-May-27 00:33N 37°11' E 011°37'5813.2
2016-May-26 20:10N 37°33' E 010°29'813.1
2016-May-26 19:31N 37°33' E 010°18'2813.6
2016-May-26 17:26N 37°34' E 009°43'4313.3
2016-May-26 14:13N 37°37' E 008°49'913.2
2016-May-26 13:33N 37°35' E 008°38'1312.8
2016-May-26 12:33N 37°34' E 008°22'1313.0
2016-May-26 11:33N 37°33' E 008°05'1313.4
2016-May-26 10:33N 37°31' E 007°49'2612.9
2016-May-26 08:33N 37°29' E 007°16'3213.0
2016-May-26 06:07N 37°26' E 006°37'913.7
2016-May-26 05:28N 37°25' E 006°25'1313.3
2016-May-26 04:30N 37°24' E 006°09'1213.1
2016-May-26 03:33N 37°22' E 005°54'1313.3
2016-May-26 02:33N 37°21' E 005°37'1913.5
2016-May-26 01:09N 37°19' E 005°13'813.4
2016-May-26 00:33N 37°18' E 005°03'1313.3
2016-May-25 23:33N 37°17' E 004°47'1413.3
2016-May-25 22:32N 37°16' E 004°30'1313.4
2016-May-25 21:33N 37°14' E 004°13'1313.2
2016-May-25 20:33N 37°13' E 003°57'1313.2
2016-May-25 19:33N 37°11' E 003°40'1313.3
2016-May-25 18:33N 37°08' E 003°24'2713.7
2016-May-25 16:33N 37°03' E 002°50'1413.6
2016-May-25 15:33N 37°01' E 002°33'2913.4
2016-May-25 13:23N 36°56' E 001°58'1214.1
2016-May-25 12:33N 36°54' E 001°43'3313.9
2016-May-25 10:10N 36°48' E 001°02'913.8
2016-May-25 09:33N 36°47' E 000°52'30013.7
2016-May-24 11:33N 36°01' W 005°17'8 2.6
2016-May-24 08:17N 36°06' W 005°25'0 0.1
2016-May-24 07:11N 36°06' W 005°25'0 0.2
2016-May-24 06:32N 36°06' W 005°25'0 0.0
2016-May-24 05:32N 36°06' W 005°25'0 0.0
2016-May-24 04:32N 36°06' W 005°25'0 0.0
2016-May-24 03:32N 36°06' W 005°25'0 0.0
2016-May-24 02:32N 36°06' W 005°25'0 0.1
2016-May-24 01:32N 36°06' W 005°25'0 0.0
2016-May-24 00:32N 36°06' W 005°25'0 0.1
2016-May-23 23:33N 36°06' W 005°25'0 0.1
2016-May-23 22:32N 36°06' W 005°25'0 0.0
2016-May-23 21:16N 36°06' W 005°25'1 0.6
2016-May-23 20:26N 36°06' W 005°25'5 5.2
2016-May-23 19:26N 36°01' W 005°24'4113.9
2016-May-23 16:30N 35°53' W 006°13'1412.9
2016-May-23 15:26N 35°43' W 006°24'1213.3
2016-May-23 14:33N 35°34' W 006°34'1313.4
2016-May-23 13:33N 35°24' W 006°45'4113.3
2016-May-23 10:30N 34°53' W 007°18'125 3.2
2016-May-21 19:33N 33°09' W 008°41'  
Track history (hours):
 
Tides and Currents Weather Stations Pressure Air Temp Water Temp Dewpoint Dewpoint Depression Visibility Wind Speed Wind Dir Waves Ship Positions

Chemroad Wing

Last reported at 2016-May-31 06:13 UTC. Time now 2016-May-31 20:01 UTC.
Position N 31°07' E 032°18'.

Length 170 m; draft 11.4 m.

Type: Ship (hazmat cat B). MMSI: 357740000.

Date/timePositionNaut miles runAvg speedWind from/ knotsBaromVisibWave heightAir tempDewpointWater temp
2016-May-31 06:13N 31°07' E 032°18'12 7.4
2016-May-31 04:33N 31°19' E 032°22'4 0.4
2016-May-30 16:08N 31°23' E 032°19'31 3.3
2016-May-30 06:33N 31°46' E 031°54'4113.6
2016-May-30 03:33N 32°03' E 031°10'1313.3
2016-May-30 02:34N 32°07' E 030°56'1313.4
2016-May-30 01:33N 32°14' E 030°42'5413.4
2016-May-29 21:33N 32°29' E 029°40'1313.2
2016-May-29 20:33N 32°32' E 029°25'1313.4
2016-May-29 19:33N 32°36' E 029°10'51013.7
2016-May-28 06:12N 34°56' E 019°20'913.9
2016-May-28 05:33N 34°58' E 019°09'1414.2
2016-May-28 04:33N 35°02' E 018°52'1414.0
2016-May-28 03:33N 35°05' E 018°36'1413.9
2016-May-28 02:33N 35°09' E 018°20'1413.5
2016-May-28 01:32N 35°13' E 018°04'1313.3
2016-May-28 00:33N 35°17' E 017°48'1313.2
2016-May-27 23:33N 35°20' E 017°32'1913.3
2016-May-27 22:07N 35°25' E 017°10'713.3
2016-May-27 21:34N 35°27' E 017°01'1413.5
2016-May-27 20:33N 35°31' E 016°45'1313.3
2016-May-27 19:33N 35°35' E 016°29'1313.3
2016-May-27 18:33N 35°38' E 016°14'1313.3
2016-May-27 17:33N 35°42' E 015°58'1413.5
2016-May-27 16:33N 35°46' E 015°42'1313.1
2016-May-27 15:33N 35°50' E 015°27'1313.2
2016-May-27 14:34N 35°55' E 015°12'1313.1
2016-May-27 13:33N 36°00' E 014°57'1313.2
2016-May-27 12:33N 36°05' E 014°42'1313.2
2016-May-27 11:33N 36°10' E 014°27'1313.1
2016-May-27 10:34N 36°15' E 014°12'1313.3
2016-May-27 09:33N 36°21' E 013°57'1313.4
2016-May-27 08:33N 36°26' E 013°41'1313.3
2016-May-27 07:34N 36°32' E 013°27'1413.8
2016-May-27 06:33N 36°37' E 013°10'1413.7
2016-May-27 05:33N 36°42' E 012°55'1413.7
2016-May-27 04:33N 36°47' E 012°39'1413.9
2016-May-27 03:33N 36°53' E 012°23'1414.1
2016-May-27 02:34N 36°59' E 012°07'1414.0
2016-May-27 01:33N 37°05' E 011°51'1313.4
2016-May-27 00:33N 37°11' E 011°37'5813.2
2016-May-26 20:10N 37°33' E 010°29'813.1
2016-May-26 19:31N 37°33' E 010°18'2813.6
2016-May-26 17:26N 37°34' E 009°43'4313.3
2016-May-26 14:13N 37°37' E 008°49'913.2
2016-May-26 13:33N 37°35' E 008°38'1312.8
2016-May-26 12:33N 37°34' E 008°22'1313.0
2016-May-26 11:33N 37°33' E 008°05'1313.4
2016-May-26 10:33N 37°31' E 007°49'2612.9
2016-May-26 08:33N 37°29' E 007°16'3213.0
2016-May-26 06:07N 37°26' E 006°37'913.7
2016-May-26 05:28N 37°25' E 006°25'1313.3
2016-May-26 04:30N 37°24' E 006°09'1213.1
2016-May-26 03:33N 37°22' E 005°54'1313.3
2016-May-26 02:33N 37°21' E 005°37'1913.5
2016-May-26 01:09N 37°19' E 005°13'813.4
2016-May-26 00:33N 37°18' E 005°03'1313.3
2016-May-25 23:33N 37°17' E 004°47'1413.3
2016-May-25 22:32N 37°16' E 004°30'1313.4
2016-May-25 21:33N 37°14' E 004°13'1313.2
2016-May-25 20:33N 37°13' E 003°57'1313.2
2016-May-25 19:33N 37°11' E 003°40'1313.3
2016-May-25 18:33N 37°08' E 003°24'2713.7
2016-May-25 16:33N 37°03' E 002°50'1413.6
2016-May-25 15:33N 37°01' E 002°33'2913.4
2016-May-25 13:23N 36°56' E 001°58'1214.1
2016-May-25 12:33N 36°54' E 001°43'3313.9
2016-May-25 10:10N 36°48' E 001°02'913.8
2016-May-25 09:33N 36°47' E 000°52'30013.7
2016-May-24 11:33N 36°01' W 005°17'8 2.6
2016-May-24 08:17N 36°06' W 005°25'0 0.1
2016-May-24 07:11N 36°06' W 005°25'0 0.2
2016-May-24 06:32N 36°06' W 005°25'0 0.0
2016-May-24 05:32N 36°06' W 005°25'0 0.0
2016-May-24 04:32N 36°06' W 005°25'0 0.0
2016-May-24 03:32N 36°06' W 005°25'0 0.0
2016-May-24 02:32N 36°06' W 005°25'0 0.1
2016-May-24 01:32N 36°06' W 005°25'0 0.0
2016-May-24 00:32N 36°06' W 005°25'0 0.1
2016-May-23 23:33N 36°06' W 005°25'0 0.1
2016-May-23 22:32N 36°06' W 005°25'0 0.0
2016-May-23 21:16N 36°06' W 005°25'1 0.6
2016-May-23 20:26N 36°06' W 005°25'5 5.2
2016-May-23 19:26N 36°01' W 005°24'4113.9
2016-May-23 16:30N 35°53' W 006°13'1412.9
2016-May-23 15:26N 35°43' W 006°24'1213.3
2016-May-23 14:33N 35°34' W 006°34'1313.4
2016-May-23 13:33N 35°24' W 006°45'4113.3
2016-May-23 10:30N 34°53' W 007°18'125 3.2
2016-May-21 19:33N 33°09' W 008°41'  

Dump ship's entire track history